createdAt,value
2022-08-22T00:00:54.389Z,24.85
2022-08-22T00:02:42.775Z,25.99
2022-08-22T00:02:43.553Z,25.58
2022-08-22T00:02:48.679Z,25.90
2022-08-22T00:03:15.001Z,24.90
2022-08-22T00:03:16.332Z,25.30
2022-08-22T00:03:47.526Z,24.86
2022-08-22T00:06:36.373Z,24.96
2022-08-22T00:09:10.344Z,24.96
2022-08-22T00:11:36.947Z,24.90
2022-08-22T00:14:07.381Z,24.87
2022-08-22T00:17:03.149Z,24.91
2022-08-22T00:19:48.856Z,24.85
2022-08-22T00:22:30.529Z,24.82
2022-08-22T00:25:24.525Z,24.81
2022-08-22T00:28:03.230Z,24.79
2022-08-22T00:30:34.621Z,24.78
2022-08-22T00:33:22.888Z,24.73
2022-08-22T00:35:53.775Z,24.74
2022-08-22T00:38:40.911Z,24.71
2022-08-22T00:41:34.285Z,24.74
2022-08-22T00:44:22.891Z,24.74
2022-08-22T00:47:07.682Z,24.79
2022-08-22T00:50:06.939Z,24.73
2022-08-22T00:53:17.825Z,24.76
2022-08-22T00:55:57.207Z,24.73
2022-08-22T00:58:29.577Z,24.69
2022-08-22T01:01:05.702Z,24.69
2022-08-22T01:03:44.423Z,24.64
2022-08-22T01:06:22.287Z,24.64
2022-08-22T01:09:27.514Z,24.66
2022-08-22T01:12:09.537Z,24.69
2022-08-22T01:14:38.701Z,24.67
2022-08-22T01:17:32.756Z,24.63
2022-08-22T01:20:01.952Z,24.62
2022-08-22T01:23:05.552Z,24.66
2022-08-22T01:26:08.926Z,24.68
2022-08-22T01:29:15.117Z,24.66
2022-08-22T01:32:18.791Z,24.66
2022-08-22T01:35:09.582Z,24.68
2022-08-22T01:38:19.676Z,24.63
2022-08-22T01:41:07.620Z,24.65
2022-08-22T01:44:13.935Z,24.64
2022-08-22T01:47:02.626Z,24.63
2022-08-22T01:49:44.185Z,24.65
2022-08-22T01:52:29.005Z,24.67
2022-08-22T01:55:03.847Z,24.65
2022-08-22T01:57:30.493Z,24.65
2022-08-22T02:00:07.776Z,24.64
2022-08-22T02:02:47.949Z,24.64
2022-08-22T02:05:31.692Z,24.64
2022-08-22T02:08:32.341Z,24.63
2022-08-22T02:11:08.804Z,24.61
2022-08-22T02:14:03.103Z,24.62
2022-08-22T02:16:40.255Z,24.63
2022-08-22T02:19:15.737Z,24.64
2022-08-22T02:21:50.477Z,24.62
2022-08-22T02:24:51.277Z,24.61
2022-08-22T02:27:39.159Z,24.62
2022-08-22T02:30:14.815Z,24.61
2022-08-22T02:32:41.336Z,24.60
2022-08-22T02:35:36.796Z,24.62
2022-08-22T02:39:19.730Z,24.59
2022-08-22T02:41:54.414Z,24.56
2022-08-22T02:44:33.112Z,24.55
2022-08-22T02:47:12.283Z,24.57
2022-08-22T02:49:47.600Z,24.54
2022-08-22T02:52:25.221Z,24.54
2022-08-22T02:55:03.976Z,24.49
2022-08-22T02:57:39.496Z,24.56
2022-08-22T03:00:31.122Z,24.57
2022-08-22T03:02:59.423Z,24.56
2022-08-22T03:05:40.311Z,24.53
2022-08-22T03:08:34.524Z,24.48
2022-08-22T03:11:15.891Z,24.46
2022-08-22T03:13:58.844Z,24.44
2022-08-22T03:16:45.858Z,24.44
2022-08-22T03:19:18.967Z,24.48
2022-08-22T03:22:08.479Z,24.43
2022-08-22T03:24:53.188Z,24.46
2022-08-22T03:27:49.469Z,24.47
2022-08-22T03:30:21.708Z,24.43
2022-08-22T03:33:14.139Z,24.43
2022-08-22T03:35:46.715Z,24.42
2022-08-22T03:38:28.690Z,24.42
2022-08-22T03:41:42.958Z,24.38
2022-08-22T03:44:22.973Z,24.36
2022-08-22T03:46:49.517Z,24.31
2022-08-22T03:49:31.211Z,24.28
2022-08-22T03:52:35.153Z,24.28
2022-08-22T03:55:14.247Z,24.29
2022-08-22T03:58:02.058Z,24.28
2022-08-22T04:00:57.460Z,24.27
2022-08-22T04:03:47.170Z,24.27
2022-08-22T04:06:58.341Z,24.26
2022-08-22T04:09:52.394Z,24.25
2022-08-22T04:12:39.280Z,24.23
2022-08-22T04:15:24.923Z,24.21
2022-08-22T04:18:28.758Z,24.19
2022-08-22T04:21:11.898Z,24.22
2022-08-22T04:23:44.057Z,24.21
2022-08-22T04:26:17.338Z,24.22
2022-08-22T04:28:50.149Z,24.14
2022-08-22T04:31:46.488Z,24.21
2022-08-22T04:34:19.454Z,24.21
2022-08-22T04:36:52.304Z,24.20
2022-08-22T04:39:46.730Z,24.22
2022-08-22T04:42:34.937Z,24.16
2022-08-22T04:45:17.071Z,24.18
2022-08-22T04:47:54.018Z,24.20
2022-08-22T04:50:24.107Z,24.19
2022-08-22T04:52:53.649Z,24.17
2022-08-22T04:55:56.889Z,24.16
2022-08-22T04:58:42.014Z,24.15
2022-08-22T05:01:19.909Z,24.15
2022-08-22T05:04:01.789Z,24.15
2022-08-22T05:06:32.439Z,24.13
2022-08-22T05:09:05.433Z,24.12
2022-08-22T05:11:34.555Z,24.13
2022-08-22T05:14:16.670Z,24.15
2022-08-22T05:16:48.049Z,24.13
2022-08-22T05:19:28.419Z,24.09
2022-08-22T05:21:57.197Z,24.05
2022-08-22T05:24:38.634Z,24.08
2022-08-22T05:27:14.579Z,24.11
2022-08-22T05:29:45.917Z,24.17
2022-08-22T05:32:38.079Z,24.46
2022-08-22T05:35:08.694Z,24.84
2022-08-22T05:37:43.946Z,24.76
2022-08-22T05:40:24.490Z,25.07
2022-08-22T05:42:52.520Z,25.19
2022-08-22T05:45:21.337Z,25.22
2022-08-22T05:47:56.113Z,25.27
2022-08-22T05:50:35.848Z,25.27
2022-08-22T05:53:43.312Z,25.21
2022-08-22T05:56:20.779Z,25.20
2022-08-22T05:59:00.043Z,25.21
2022-08-22T06:01:43.133Z,25.18
2022-08-22T06:04:37.286Z,25.18
2022-08-22T06:07:16.208Z,25.21
2022-08-22T06:09:49.100Z,25.20
2022-08-22T06:12:22.188Z,25.19
2022-08-22T06:15:30.558Z,25.17
2022-08-22T06:18:01.858Z,25.23
2022-08-22T06:20:39.597Z,25.20
2022-08-22T06:23:08.410Z,25.24
2022-08-22T06:25:38.860Z,25.20
2022-08-22T06:28:12.426Z,25.09
2022-08-22T06:30:39.914Z,25.03
2022-08-22T06:33:12.738Z,24.89
2022-08-22T06:36:00.145Z,24.84
2022-08-22T06:38:34.262Z,24.74
2022-08-22T06:41:07.543Z,24.70
2022-08-22T06:43:41.647Z,24.67
2022-08-22T06:46:10.059Z,24.66
2022-08-22T06:48:37.853Z,24.64
2022-08-22T06:51:08.698Z,24.67
2022-08-22T06:53:49.960Z,24.65
2022-08-22T06:56:24.349Z,24.75
2022-08-22T06:58:54.551Z,24.65
2022-08-22T07:01:26.347Z,24.61
2022-08-22T07:03:58.249Z,24.61
2022-08-22T07:06:35.329Z,24.63
2022-08-22T07:09:06.207Z,24.60
2022-08-22T07:11:39.583Z,24.63
2022-08-22T07:14:11.568Z,24.61
2022-08-22T07:16:56.706Z,24.59
2022-08-22T07:19:36.949Z,24.54
2022-08-22T07:22:16.841Z,24.51
2022-08-22T07:24:48.617Z,24.54
2022-08-22T07:27:41.278Z,24.58
2022-08-22T07:30:12.976Z,24.63
2022-08-22T07:33:25.937Z,24.70
2022-08-22T07:35:53.423Z,24.70
2022-08-22T07:38:43.774Z,24.70
2022-08-22T07:41:10.352Z,24.69
2022-08-22T07:43:52.202Z,24.69
2022-08-22T07:46:27.462Z,24.78
2022-08-22T07:49:09.181Z,24.74
2022-08-22T07:51:44.217Z,24.75
2022-08-22T07:54:15.218Z,24.79
2022-08-22T07:56:48.793Z,24.74
2022-08-22T07:59:20.047Z,24.80
2022-08-22T08:01:56.947Z,24.85
2022-08-22T08:04:31.939Z,24.82
2022-08-22T08:07:00.924Z,24.81
2022-08-22T08:09:32.992Z,24.79
2022-08-22T08:12:02.195Z,24.86
2022-08-22T08:14:29.978Z,24.86
2022-08-22T08:17:06.998Z,24.93
2022-08-22T08:19:39.209Z,24.95
2022-08-22T08:22:06.467Z,24.96
2022-08-22T08:24:40.191Z,25.05
2022-08-22T08:27:42.793Z,25.08
2022-08-22T08:30:17.142Z,25.06
2022-08-22T08:32:49.412Z,25.06
2022-08-22T08:35:23.952Z,24.98
2022-08-22T08:38:02.067Z,25.02
2022-08-22T08:40:31.477Z,25.03
2022-08-22T08:43:22.669Z,25.00
2022-08-22T08:45:49.226Z,25.07
2022-08-22T08:48:40.333Z,25.03
2022-08-22T08:51:23.727Z,25.05
2022-08-22T08:54:24.053Z,25.09
2022-08-22T08:57:20.185Z,25.12
2022-08-22T09:00:13.228Z,25.09
2022-08-22T09:03:12.165Z,25.07
2022-08-22T09:05:48.340Z,25.02
2022-08-22T09:08:17.671Z,25.04
2022-08-22T09:11:09.557Z,25.11
2022-08-22T09:14:02.580Z,25.10
2022-08-22T09:16:58.748Z,25.16
2022-08-22T09:19:44.522Z,25.26
2022-08-22T09:22:49.877Z,25.22
2022-08-22T09:25:23.580Z,25.23
2022-08-22T09:28:14.361Z,25.34
2022-08-22T09:31:17.014Z,25.42
2022-08-22T09:33:59.575Z,25.36
2022-08-22T09:36:55.245Z,25.38
2022-08-22T09:40:19.673Z,25.29
2022-08-22T09:43:08.821Z,25.27
2022-08-22T09:45:40.832Z,25.39
2022-08-22T09:48:21.288Z,25.28
2022-08-22T09:51:13.628Z,25.26
2022-08-22T09:54:07.728Z,25.35
2022-08-22T09:57:07.381Z,25.49
2022-08-22T09:59:49.182Z,25.67
2022-08-22T10:02:36.612Z,25.66
2022-08-22T10:05:43.988Z,25.92
2022-08-22T10:08:48.375Z,26.04
2022-08-22T10:11:38.761Z,26.13
2022-08-22T10:14:15.656Z,26.39
2022-08-22T10:17:02.459Z,26.46
2022-08-22T10:19:35.012Z,26.50
2022-08-22T10:22:16.851Z,26.61
2022-08-22T10:24:55.695Z,26.72
2022-08-22T10:27:41.234Z,26.54
2022-08-22T10:30:17.736Z,26.66
2022-08-22T10:33:05.807Z,26.82
2022-08-22T10:36:23.687Z,27.43
2022-08-22T10:38:55.797Z,27.79
2022-08-22T10:41:42.668Z,27.89
2022-08-22T10:44:21.560Z,28.02
2022-08-22T10:47:00.972Z,27.82
2022-08-22T10:49:39.278Z,27.87
2022-08-22T10:52:15.678Z,27.68
2022-08-22T10:55:09.878Z,27.37
2022-08-22T10:57:39.537Z,27.28
2022-08-22T11:00:16.159Z,27.36
2022-08-22T11:03:14.522Z,27.46
2022-08-22T11:05:51.009Z,27.72
2022-08-22T11:08:20.641Z,28.20
2022-08-22T11:10:53.600Z,27.88
2022-08-22T11:13:32.800Z,27.67
2022-08-22T11:16:20.864Z,27.49
2022-08-22T11:19:15.152Z,27.26
2022-08-22T11:21:55.242Z,27.22
2022-08-22T11:24:35.700Z,27.18
2022-08-22T11:27:54.329Z,27.39
2022-08-22T11:30:32.025Z,27.47
2022-08-22T11:33:46.492Z,27.46
2022-08-22T11:36:17.439Z,27.33
2022-08-22T11:38:58.145Z,27.42
2022-08-22T11:42:05.492Z,27.53
2022-08-22T11:44:50.461Z,27.56
2022-08-22T11:47:24.813Z,27.53
2022-08-22T11:49:57.408Z,27.40
2022-08-22T11:52:42.771Z,27.42
2022-08-22T11:55:33.269Z,27.31
2022-08-22T11:58:28.944Z,27.32
2022-08-22T12:01:02.428Z,27.38
2022-08-22T12:03:32.464Z,27.92
2022-08-22T12:06:36.617Z,29.03
2022-08-22T12:09:35.925Z,29.70
2022-08-22T12:12:22.820Z,30.16
2022-08-22T12:14:59.335Z,30.09
2022-08-22T12:17:55.314Z,30.01
2022-08-22T12:20:49.301Z,29.86
2022-08-22T12:23:40.793Z,29.29
2022-08-22T12:26:29.682Z,28.96
2022-08-22T12:29:18.051Z,28.74
2022-08-22T12:32:10.268Z,28.36
2022-08-22T12:34:53.876Z,28.17
2022-08-22T12:37:55.855Z,28.07
2022-08-22T12:40:28.166Z,28.03
2022-08-22T12:43:07.750Z,27.94
2022-08-22T12:45:46.487Z,27.87
2022-08-22T12:48:20.453Z,27.80
2022-08-22T12:51:31.928Z,27.76
2022-08-22T12:54:21.001Z,27.76
2022-08-22T12:56:47.704Z,27.78
2022-08-22T12:59:29.406Z,27.83
2022-08-22T13:02:02.355Z,27.82
2022-08-22T13:04:34.372Z,27.83
2022-08-22T13:07:08.606Z,27.81
2022-08-22T13:09:39.991Z,27.85
2022-08-22T13:12:20.056Z,27.92
2022-08-22T13:14:50.471Z,27.86
2022-08-22T13:17:24.375Z,27.83
2022-08-22T13:20:10.796Z,27.87
2022-08-22T13:22:45.268Z,27.97
2022-08-22T13:25:25.672Z,28.01
2022-08-22T13:28:04.212Z,28.07
2022-08-22T13:30:38.903Z,28.10
2022-08-22T13:33:12.835Z,28.07
2022-08-22T13:35:54.045Z,28.05
2022-08-22T13:38:32.429Z,28.03
2022-08-22T13:41:02.058Z,28.02
2022-08-22T13:43:34.404Z,27.92
2022-08-22T13:46:06.237Z,27.82
2022-08-22T13:48:56.649Z,27.72
2022-08-22T13:51:46.031Z,27.61
2022-08-22T13:54:16.160Z,27.51
2022-08-22T13:56:56.379Z,27.36
2022-08-22T13:59:52.505Z,27.32
2022-08-22T14:02:43.821Z,27.34
2022-08-22T14:05:24.047Z,27.27
2022-08-22T14:08:12.514Z,27.22
2022-08-22T14:10:52.198Z,27.23
2022-08-22T14:13:48.800Z,27.26
2022-08-22T14:16:39.656Z,27.31
2022-08-22T14:19:11.263Z,27.33
2022-08-22T14:21:50.776Z,27.36
2022-08-22T14:24:26.903Z,27.32
2022-08-22T14:27:05.246Z,27.36
2022-08-22T14:29:54.501Z,27.33
2022-08-22T14:32:22.977Z,27.25
2022-08-22T14:35:21.687Z,27.31
2022-08-22T14:38:19.999Z,27.28
2022-08-22T14:40:52.785Z,27.24
2022-08-22T14:43:29.069Z,27.26
2022-08-22T14:46:05.746Z,27.19
2022-08-22T14:48:44.144Z,27.25
2022-08-22T14:51:21.420Z,27.15
2022-08-22T14:53:50.061Z,27.02
2022-08-22T14:56:24.511Z,27.02
2022-08-22T14:58:58.850Z,26.94
2022-08-22T15:01:29.656Z,26.86
2022-08-22T15:04:02.437Z,26.87
2022-08-22T15:06:55.128Z,26.91
2022-08-22T15:09:30.953Z,26.97
2022-08-22T15:11:58.160Z,26.99
2022-08-22T15:14:37.357Z,27.02
2022-08-22T15:17:07.325Z,26.97
2022-08-22T15:19:36.861Z,26.98
2022-08-22T15:22:20.333Z,26.96
2022-08-22T15:24:52.729Z,26.92
2022-08-22T15:27:25.423Z,26.85
2022-08-22T15:30:02.589Z,26.84
2022-08-22T15:32:32.130Z,26.84
2022-08-22T15:35:09.001Z,26.39
2022-08-22T15:38:00.180Z,26.55
2022-08-22T15:40:45.847Z,26.66
2022-08-22T15:43:15.774Z,26.42
2022-08-22T15:45:43.937Z,26.41
2022-08-22T15:48:33.947Z,26.80
2022-08-22T15:51:09.199Z,27.07
2022-08-22T15:53:45.022Z,27.11
2022-08-22T15:56:11.665Z,27.07
2022-08-22T15:58:48.086Z,27.02
2022-08-22T16:01:20.653Z,26.99
2022-08-22T16:04:02.054Z,26.95
2022-08-22T16:06:43.785Z,26.85
2022-08-22T16:09:33.049Z,26.84
2022-08-22T16:12:03.792Z,26.94
2022-08-22T16:14:33.514Z,26.86
2022-08-22T16:17:03.616Z,26.87
2022-08-22T16:19:33.073Z,26.83
2022-08-22T16:21:59.869Z,26.84
2022-08-22T16:24:26.735Z,26.87
2022-08-22T16:26:53.593Z,26.83
2022-08-22T16:29:41.898Z,26.78
2022-08-22T16:32:12.035Z,26.70
2022-08-22T16:34:43.854Z,26.70
2022-08-22T16:37:18.103Z,26.61
2022-08-22T16:39:52.290Z,26.65
2022-08-22T16:42:21.788Z,26.68
2022-08-22T16:45:17.623Z,26.59
2022-08-22T16:47:52.899Z,26.57
2022-08-22T16:50:33.712Z,26.53
2022-08-22T16:53:09.383Z,26.48
2022-08-22T16:55:44.703Z,26.49
2022-08-22T16:58:17.111Z,26.35
2022-08-22T17:00:58.974Z,26.31
2022-08-22T17:04:04.153Z,26.40
2022-08-22T17:06:49.209Z,26.30
2022-08-22T17:09:37.043Z,26.22
2022-08-22T17:12:16.483Z,26.17
2022-08-22T17:14:45.718Z,26.00
2022-08-22T17:17:25.406Z,26.05
2022-08-22T17:20:16.619Z,25.99
2022-08-22T17:22:45.996Z,25.99
2022-08-22T17:25:31.067Z,25.87
2022-08-22T17:28:07.750Z,25.80
2022-08-22T17:30:44.485Z,25.75
2022-08-22T17:33:34.196Z,25.70
2022-08-22T17:36:26.487Z,25.69
2022-08-22T17:39:12.515Z,25.66
2022-08-22T17:42:08.426Z,25.52
2022-08-22T17:44:55.471Z,25.60
2022-08-22T17:47:32.012Z,25.60
2022-08-22T17:50:21.848Z,25.62
2022-08-22T17:52:59.848Z,25.46
2022-08-22T17:55:39.740Z,25.40
2022-08-22T17:58:37.619Z,25.37
2022-08-22T18:01:13.513Z,25.47
2022-08-22T18:03:52.341Z,25.40
2022-08-22T18:06:26.512Z,25.38
2022-08-22T18:09:24.571Z,25.33
2022-08-22T18:12:04.668Z,25.27
2022-08-22T18:14:31.220Z,25.24
2022-08-22T18:17:00.755Z,25.25
2022-08-22T18:19:43.654Z,25.22
2022-08-22T18:22:28.749Z,25.16
2022-08-22T18:25:22.227Z,25.16
2022-08-22T18:27:57.712Z,25.15
2022-08-22T18:30:29.762Z,25.15
2022-08-22T18:33:05.233Z,25.06
2022-08-22T18:36:01.246Z,25.02
2022-08-22T18:38:45.740Z,25.02
2022-08-22T18:41:12.283Z,25.03
2022-08-22T18:43:48.260Z,24.99
2022-08-22T18:46:40.240Z,24.97
2022-08-22T18:49:19.698Z,24.97
2022-08-22T18:52:13.701Z,24.96
2022-08-22T18:55:08.291Z,24.92
2022-08-22T18:57:49.719Z,24.92
2022-08-22T19:00:46.102Z,24.94
2022-08-22T19:03:31.221Z,24.90
2022-08-22T19:05:57.770Z,24.90
2022-08-22T19:08:30.167Z,24.90
2022-08-22T19:11:03.101Z,24.90
2022-08-22T19:14:10.294Z,24.88
2022-08-22T19:17:03.147Z,24.90
2022-08-22T19:20:27.777Z,24.95
2022-08-22T19:23:32.759Z,25.01
2022-08-22T19:26:20.573Z,24.94
2022-08-22T19:28:47.850Z,24.95
2022-08-22T19:31:41.838Z,24.91
2022-08-22T19:34:29.394Z,24.92
2022-08-22T19:37:30.509Z,24.94
2022-08-22T19:40:48.935Z,24.90
2022-08-22T19:43:30.542Z,24.83
2022-08-22T19:46:00.059Z,24.84
2022-08-22T19:48:44.491Z,24.87
2022-08-22T19:51:25.911Z,24.85
2022-08-22T19:53:57.644Z,24.76
2022-08-22T19:56:43.034Z,24.70
2022-08-22T19:59:37.912Z,24.67
2022-08-22T20:02:04.548Z,24.71
2022-08-22T20:04:33.763Z,24.72
2022-08-22T20:07:26.220Z,24.71
2022-08-22T20:10:16.856Z,24.70
2022-08-22T20:12:49.473Z,24.69
2022-08-22T20:15:23.603Z,24.71
2022-08-22T20:20:55.599Z,24.71
2022-08-22T20:23:30.594Z,24.71
2022-08-22T20:25:58.025Z,24.73
2022-08-22T20:28:34.010Z,24.72
2022-08-22T20:31:05.909Z,24.68
2022-08-22T20:33:40.060Z,24.72
2022-08-22T20:36:16.699Z,24.74
2022-08-22T20:39:01.669Z,24.76
2022-08-22T20:41:32.495Z,24.76
2022-08-22T20:44:06.150Z,24.74
2022-08-22T20:46:44.800Z,24.73
2022-08-22T20:49:25.303Z,24.76
2022-08-22T20:52:01.920Z,24.70
2022-08-22T20:54:31.365Z,24.74
2022-08-22T20:57:04.201Z,24.71
2022-08-22T20:59:41.508Z,24.70
2022-08-22T21:02:18.206Z,24.70
2022-08-22T21:05:01.846Z,24.68
2022-08-22T21:07:32.620Z,24.69
2022-08-22T21:10:37.009Z,24.70
2022-08-22T21:13:19.631Z,24.71
2022-08-22T21:15:48.253Z,24.70
2022-08-22T21:18:35.084Z,24.68
2022-08-22T21:21:17.014Z,24.72
2022-08-22T21:23:50.377Z,24.67
2022-08-22T21:26:25.145Z,24.69
2022-08-22T21:29:08.813Z,24.67
2022-08-22T21:31:42.486Z,24.65
2022-08-22T21:34:19.900Z,24.65
2022-08-22T21:36:50.470Z,24.64
2022-08-22T21:39:30.615Z,24.65
2022-08-22T21:41:59.984Z,24.65
2022-08-22T21:44:35.653Z,24.70
2022-08-22T21:47:28.548Z,24.69
2022-08-22T21:50:13.900Z,24.69
2022-08-22T21:52:56.298Z,24.69
2022-08-22T21:55:43.080Z,24.70
2022-08-22T21:58:30.974Z,24.68
2022-08-22T22:01:32.377Z,24.69
2022-08-22T22:03:59.504Z,24.69
2022-08-22T22:06:26.573Z,24.68
2022-08-22T22:08:53.450Z,24.72
2022-08-22T22:11:20.215Z,24.76
2022-08-22T22:13:46.962Z,24.77
2022-08-22T22:16:17.963Z,24.78
2022-08-22T22:18:44.564Z,24.76
2022-08-22T22:21:11.206Z,24.81
2022-08-22T22:23:37.815Z,24.79
2022-08-22T22:26:06.042Z,24.76
2022-08-22T22:28:41.838Z,24.77
2022-08-22T22:31:09.649Z,24.74
2022-08-22T22:33:39.549Z,24.73
2022-08-22T22:36:10.508Z,24.73
2022-08-22T22:38:39.371Z,24.71
2022-08-22T22:41:06.020Z,24.74
2022-08-22T22:43:33.206Z,24.70
2022-08-22T22:45:59.870Z,24.72
2022-08-22T22:48:26.626Z,24.72
2022-08-22T22:50:54.109Z,24.74
2022-08-22T22:53:38.715Z,24.70
2022-08-22T22:56:10.806Z,24.73
2022-08-22T22:58:40.293Z,24.74
2022-08-22T23:01:20.014Z,24.75
2022-08-22T23:03:47.807Z,24.81
2022-08-22T23:06:19.360Z,24.82
2022-08-22T23:08:46.537Z,24.81
2022-08-22T23:11:20.153Z,24.79
2022-08-22T23:13:48.388Z,24.80
2022-08-22T23:16:18.169Z,24.84
2022-08-22T23:18:45.429Z,24.82
2022-08-22T23:21:18.296Z,24.85
2022-08-22T23:23:45.764Z,24.83
2022-08-22T23:26:13.442Z,24.86
2022-08-22T23:28:40.423Z,24.98
2022-08-22T23:31:16.741Z,24.98
2022-08-22T23:33:44.713Z,24.86
2022-08-22T23:36:15.602Z,24.96
2022-08-22T23:38:42.718Z,24.88
2022-08-22T23:41:11.755Z,24.86
2022-08-22T23:43:43.297Z,24.82
2022-08-22T23:46:10.934Z,24.87
2022-08-22T23:48:37.868Z,24.82
2022-08-22T23:51:05.073Z,24.92
2022-08-22T23:53:32.025Z,24.95
2022-08-22T23:56:22.396Z,24.83
2022-08-22T23:58:51.184Z,24.77
